Time;durP1;ratioP1;P1;durP2;ratioP2;P2;SDS_P1;SDS_P2;PMS_P1;PMS_P2;Temp;Humidity;BMP_temperature;BMP_pressure;BME280_temperature;BME280_humidity;BME280_pressure;Samples;Min_cycle;Max_cycle;Signal;HPM_P1;HPM_P2
2022/01/05 00:02:11;;;;;;;7.40;1.60;;;26.00;99.90;;;;;;4972043;28;20058;-71
2022/01/05 00:04:38;;;;;;;9.50;1.95;;;26.00;99.90;;;;;;4971089;28;20106;-72
2022/01/05 00:07:07;;;;;;;6.43;1.80;;;26.10;99.90;;;;;;4972353;28;20431;-72
2022/01/05 00:09:34;;;;;;;6.88;1.27;;;26.30;99.90;;;;;;4972432;28;20090;-72
2022/01/05 00:12:01;;;;;;;9.02;1.45;;;26.30;99.90;;;;;;4973992;28;20015;-74
2022/01/05 00:14:29;;;;;;;7.95;1.60;;;26.40;99.90;;;;;;4975797;28;20038;-72
2022/01/05 00:16:56;;;;;;;9.68;1.70;;;26.50;99.90;;;;;;4976371;28;20117;-71
2022/01/05 00:19:23;;;;;;;12.07;2.10;;;26.60;99.90;;;;;;4976062;28;20023;-74
2022/01/05 00:21:50;;;;;;;8.88;1.70;;;26.50;99.90;;;;;;4973153;28;20023;-73
2022/01/05 00:24:18;;;;;;;11.20;2.65;;;26.40;99.90;;;;;;4955032;28;20051;-73
2022/01/05 00:26:45;;;;;;;10.63;1.80;;;26.40;99.90;;;;;;4971166;28;20042;-72
2022/01/05 00:29:12;;;;;;;9.75;2.17;;;26.30;99.90;;;;;;4974685;28;20034;-74
2022/01/05 00:31:40;;;;;;;7.03;2.78;;;26.20;99.90;;;;;;4975883;28;20019;-70
2022/01/05 00:34:08;;;;;;;9.88;1.77;;;26.20;99.90;;;;;;4975514;28;20027;-74
2022/01/05 00:36:35;;;;;;;10.63;1.98;;;26.10;99.90;;;;;;4975996;28;20023;-76
2022/01/05 00:39:03;;;;;;;8.93;1.85;;;26.00;99.90;;;;;;4976859;28;20069;-73
2022/01/05 00:41:31;;;;;;;14.15;3.13;;;25.80;99.90;;;;;;4973237;28;20476;-72
2022/01/05 00:43:58;;;;;;;5.95;1.67;;;25.70;99.90;;;;;;4973169;28;20702;-69
2022/01/05 00:46:26;;;;;;;6.78;1.02;;;25.60;99.90;;;;;;4975660;28;20030;-69
2022/01/05 00:48:53;;;;;;;4.05;1.02;;;25.60;99.90;;;;;;4975114;28;20101;-68
2022/01/05 00:51:20;;;;;;;6.47;1.10;;;25.40;99.90;;;;;;4975222;28;20030;-71
2022/01/05 00:53:48;;;;;;;9.13;1.67;;;25.30;99.90;;;;;;4975198;28;20487;-70
2022/01/05 00:56:15;;;;;;;5.07;0.70;;;25.10;99.90;;;;;;4975187;28;20039;-71
2022/01/05 00:58:42;;;;;;;5.07;0.90;;;25.10;99.90;;;;;;4975019;28;20027;-72
2022/01/05 01:01:10;;;;;;;2.22;0.82;;;25.00;99.90;;;;;;4974971;28;20073;-71
2022/01/05 01:03:39;;;;;;;5.53;1.10;;;25.00;99.90;;;;;;4975008;28;20467;-74
2022/01/05 01:06:07;;;;;;;5.97;1.35;;;25.10;99.90;;;;;;4975517;28;20026;-71
2022/01/05 01:08:34;;;;;;;9.77;2.17;;;25.40;99.90;;;;;;4973807;28;20061;-71
2022/01/05 01:11:01;;;;;;;9.05;1.70;;;25.50;99.90;;;;;;4974993;28;20022;-72
2022/01/05 01:13:29;;;;;;;9.57;1.88;;;25.70;99.90;;;;;;4974618;28;20035;-74
2022/01/05 01:15:56;;;;;;;15.50;2.38;;;26.10;99.90;;;;;;4973361;28;20039;-73
2022/01/05 01:18:23;;;;;;;8.32;1.85;;;26.40;99.90;;;;;;4974838;28;20027;-75
2022/01/05 01:20:51;;;;;;;8.60;2.47;;;26.50;99.90;;;;;;4974897;28;20090;-75
2022/01/05 01:23:22;;;;;;;10.40;2.88;;;26.60;99.90;;;;;;4964031;28;20027;-76
2022/01/05 01:25:50;;;;;;;11.82;2.35;;;26.60;99.90;;;;;;4966389;28;20073;-77
2022/01/05 01:28:19;;;;;;;9.10;2.00;;;26.50;99.90;;;;;;4974567;28;20027;-75
2022/01/05 01:30:47;;;;;;;12.65;2.28;;;26.40;99.90;;;;;;4969113;28;20034;-77
2022/01/05 01:33:15;;;;;;;16.23;3.05;;;26.50;99.90;;;;;;4974666;28;20460;-75
2022/01/05 01:35:42;;;;;;;9.20;1.73;;;26.60;99.90;;;;;;4974450;28;20030;-74
2022/01/05 01:38:09;;;;;;;12.50;2.33;;;26.70;99.90;;;;;;4970432;28;20015;-74
2022/01/05 01:40:37;;;;;;;12.35;2.55;;;26.80;99.90;;;;;;4973680;28;20395;-72
2022/01/05 01:43:04;;;;;;;12.98;2.00;;;26.60;99.90;;;;;;4974202;28;20054;-73
2022/01/05 01:45:33;;;;;;;11.85;2.90;;;26.60;99.90;;;;;;4972808;28;20014;-73
2022/01/05 01:48:02;;;;;;;7.72;1.67;;;26.50;99.90;;;;;;4965043;28;20027;-76
2022/01/05 01:50:30;;;;;;;7.13;1.55;;;26.40;99.90;;;;;;4959170;28;20023;-73
2022/01/05 01:52:57;;;;;;;8.95;1.63;;;26.10;99.90;;;;;;4952259;28;20034;-73
2022/01/05 01:55:24;;;;;;;9.85;1.83;;;25.90;99.90;;;;;;4952182;28;20039;-73
2022/01/05 01:57:52;;;;;;;10.02;2.00;;;25.80;99.90;;;;;;4953545;28;20540;-72
2022/01/05 02:00:19;;;;;;;9.32;1.98;;;25.70;99.90;;;;;;4954395;28;20058;-72
2022/01/05 02:02:47;;;;;;;10.75;2.20;;;25.70;99.90;;;;;;4955156;28;20034;-72
2022/01/05 02:05:14;;;;;;;10.02;1.95;;;25.70;99.90;;;;;;4955170;28;20031;-73
2022/01/05 02:07:42;;;;;;;11.40;2.17;;;25.80;99.90;;;;;;4954930;28;20487;-73
2022/01/05 02:10:10;;;;;;;11.68;2.35;;;25.80;99.90;;;;;;4954008;28;20468;-74
2022/01/05 02:12:38;;;;;;;10.60;1.80;;;25.90;99.90;;;;;;4955191;28;20027;-73
2022/01/05 02:15:06;;;;;;;10.55;1.55;;;26.00;99.90;;;;;;4955268;29;20119;-74
2022/01/05 02:17:51;;;;;;;7.22;1.52;;;26.20;99.90;;;;;;4955257;28;20027;-74
2022/01/05 02:20:26;;;;;;;5.97;1.02;;;26.50;99.90;;;;;;4953800;28;20035;-74
2022/01/05 02:22:54;;;;;;;3.28;0.70;;;26.70;99.90;;;;;;4953806;28;20027;-75
2022/01/05 02:25:22;;;;;;;8.48;1.50;;;26.80;99.90;;;;;;4954694;28;20047;-74
2022/01/05 02:27:53;;;;;;;5.03;0.80;;;26.90;99.90;;;;;;4954995;28;20371;-76
2022/01/05 02:30:26;;;;;;;6.73;1.03;;;27.00;99.90;;;;;;4953388;28;20038;-75
2022/01/05 02:32:53;;;;;;;4.40;1.10;;;27.20;99.90;;;;;;4954805;29;20023;-74
2022/01/05 02:35:22;;;;;;;6.35;0.80;;;27.30;99.90;;;;;;4954112;28;20114;-74
2022/01/05 02:37:52;;;;;;;4.95;0.88;;;27.50;99.90;;;;;;4954883;28;20030;-75
2022/01/05 02:40:22;;;;;;;6.90;1.17;;;27.90;99.90;;;;;;4954650;28;20023;-74
2022/01/05 02:42:52;;;;;;;4.45;0.80;;;28.30;99.90;;;;;;4954740;28;20016;-76
2022/01/05 02:45:21;;;;;;;5.28;0.73;;;28.30;99.90;;;;;;4954661;29;20065;-78
2022/01/05 02:47:48;;;;;;;5.68;0.88;;;28.10;99.90;;;;;;4954668;28;20020;-76
2022/01/05 02:50:16;;;;;;;5.65;1.30;;;27.60;99.90;;;;;;4953260;28;20031;-75
2022/01/05 02:52:43;;;;;;;6.80;0.60;;;27.30;99.90;;;;;;4954488;28;20016;-74
2022/01/05 02:55:12;;;;;;;3.92;0.73;;;27.00;99.90;;;;;;4953351;28;20038;-75
2022/01/05 02:57:40;;;;;;;2.70;0.70;;;26.80;99.90;;;;;;4954484;28;20024;-76
2022/01/05 03:00:09;;;;;;;5.75;0.85;;;26.60;99.90;;;;;;4954412;28;20083;-74
2022/01/05 03:02:36;;;;;;;4.93;1.02;;;26.50;99.90;;;;;;4954415;28;20396;-75
2022/01/05 03:05:04;;;;;;;3.95;0.63;;;26.50;99.90;;;;;;4954258;28;20034;-75
2022/01/05 03:07:36;;;;;;;4.55;0.68;;;26.40;99.90;;;;;;4954240;28;20424;-74
2022/01/05 03:10:04;;;;;;;3.75;0.60;;;26.30;99.90;;;;;;4954157;28;20147;-75
2022/01/05 03:12:31;;;;;;;6.63;0.80;;;26.30;99.90;;;;;;4954612;29;20030;-74
2022/01/05 03:14:59;;;;;;;3.30;0.63;;;26.30;99.90;;;;;;4954538;28;20031;-74
2022/01/05 03:17:26;;;;;;;8.80;1.02;;;26.30;99.90;;;;;;4954317;28;20034;-73
2022/01/05 03:19:53;;;;;;;4.03;1.38;;;26.30;99.90;;;;;;4954161;28;20027;-72
2022/01/05 03:22:20;;;;;;;3.00;0.43;;;26.30;99.90;;;;;;4954227;28;20113;-70
2022/01/05 03:24:48;;;;;;;7.60;1.83;;;26.00;99.90;;;;;;4954149;28;20051;-73
2022/01/05 03:27:15;;;;;;;4.70;0.70;;;25.80;99.90;;;;;;4954358;28;20577;-72
2022/01/05 03:29:43;;;;;;;4.50;1.17;;;25.70;99.90;;;;;;4952978;28;20396;-71
2022/01/05 03:32:10;;;;;;;6.32;1.13;;;25.50;99.90;;;;;;4954169;29;20389;-72
2022/01/05 03:34:38;;;;;;;5.22;1.25;;;25.40;99.90;;;;;;4953912;28;20608;-71
2022/01/05 03:37:05;;;;;;;6.13;1.40;;;25.30;99.90;;;;;;4954224;28;20039;-71
2022/01/05 03:39:33;;;;;;;7.00;1.98;;;25.20;99.90;;;;;;4953966;28;20023;-72
2022/01/05 03:42:01;;;;;;;8.20;1.58;;;25.20;99.90;;;;;;4954072;28;20019;-71
2022/01/05 03:44:28;;;;;;;9.50;1.48;;;25.10;99.90;;;;;;4954177;28;20473;-71
2022/01/05 03:46:55;;;;;;;11.73;1.50;;;25.10;99.90;;;;;;4957169;28;20050;-72
2022/01/05 03:49:23;;;;;;;8.43;1.42;;;25.10;99.90;;;;;;4957938;28;20026;-71
2022/01/05 03:51:51;;;;;;;5.13;0.90;;;25.10;99.90;;;;;;4957761;28;20384;-71
2022/01/05 03:54:18;;;;;;;3.42;0.63;;;25.10;99.90;;;;;;4957690;28;20469;-73
2022/01/05 03:56:46;;;;;;;7.35;0.70;;;25.00;99.90;;;;;;4957788;28;20135;-71
2022/01/05 03:59:13;;;;;;;2.85;0.60;;;25.00;99.90;;;;;;4957564;28;20059;-71
2022/01/05 04:01:41;;;;;;;5.32;0.90;;;25.00;99.90;;;;;;4956446;28;20420;-71
2022/01/05 04:04:08;;;;;;;5.30;0.60;;;24.90;99.90;;;;;;4957596;28;20023;-71
2022/01/05 04:06:35;;;;;;;4.70;0.90;;;24.90;99.90;;;;;;4957566;28;20439;-72
2022/01/05 04:09:02;;;;;;;2.53;0.50;;;24.90;99.90;;;;;;4957332;28;20029;-71
2022/01/05 04:11:30;;;;;;;4.55;0.88;;;24.90;99.90;;;;;;4957667;28;20022;-73
2022/01/05 04:13:57;;;;;;;5.55;0.55;;;24.90;99.90;;;;;;4957327;28;20072;-71
2022/01/05 04:16:24;;;;;;;5.32;1.73;;;24.80;99.90;;;;;;4957222;28;20031;-71
2022/01/05 04:18:51;;;;;;;3.85;0.52;;;24.70;99.90;;;;;;4957545;28;20102;-72
2022/01/05 04:21:19;;;;;;;5.03;0.90;;;24.70;99.90;;;;;;4957505;29;20118;-71
2022/01/05 04:23:46;;;;;;;4.45;0.73;;;24.70;99.90;;;;;;4957131;28;20323;-71
2022/01/05 04:26:13;;;;;;;4.47;0.68;;;24.70;99.90;;;;;;4957135;29;20106;-71
2022/01/05 04:28:41;;;;;;;4.82;1.77;;;24.70;99.90;;;;;;4957532;28;20030;-73
2022/01/05 04:31:08;;;;;;;3.40;0.60;;;24.60;99.90;;;;;;4957126;28;20058;-73
2022/01/05 04:33:35;;;;;;;6.75;1.33;;;24.50;99.90;;;;;;4956981;28;20023;-71
2022/01/05 04:36:03;;;;;;;10.35;1.30;;;24.50;99.90;;;;;;4957215;28;20038;-71
2022/01/05 04:38:30;;;;;;;5.80;0.85;;;24.50;99.90;;;;;;4955557;28;20019;-71
2022/01/05 04:40:57;;;;;;;6.50;1.10;;;24.50;99.90;;;;;;4955533;28;20035;-71
2022/01/05 04:43:25;;;;;;;7.55;1.60;;;24.60;99.90;;;;;;4956842;28;20051;-70
2022/01/05 04:45:52;;;;;;;5.57;0.93;;;24.60;99.90;;;;;;4956904;28;20027;-71
2022/01/05 04:48:20;;;;;;;6.88;1.00;;;24.70;99.90;;;;;;4957115;28;20027;-72
2022/01/05 04:50:47;;;;;;;4.13;1.40;;;24.70;99.90;;;;;;4956902;28;20075;-72
2022/01/05 04:53:14;;;;;;;7.63;1.88;;;24.70;99.90;;;;;;4956817;28;20136;-72
2022/01/05 04:55:42;;;;;;;3.28;0.93;;;24.70;99.90;;;;;;4955400;28;20039;-72
2022/01/05 04:58:10;;;;;;;6.47;0.95;;;24.70;99.90;;;;;;4956241;28;20119;-73
2022/01/05 05:00:38;;;;;;;6.30;1.40;;;24.70;99.90;;;;;;4955680;28;20122;-73
2022/01/05 05:03:05;;;;;;;6.65;1.65;;;24.80;99.90;;;;;;4956715;28;20023;-71
2022/01/05 05:05:34;;;;;;;5.82;2.10;;;24.80;99.90;;;;;;4956774;28;20461;-71
2022/01/05 05:08:02;;;;;;;5.35;1.00;;;24.80;99.90;;;;;;4956355;28;20031;-73
2022/01/05 05:10:29;;;;;;;7.43;1.15;;;24.80;99.90;;;;;;4956081;28;20027;-72
2022/01/05 05:12:56;;;;;;;7.90;1.70;;;24.70;99.90;;;;;;4956300;28;20101;-75
2022/01/05 05:15:25;;;;;;;7.65;1.27;;;24.70;99.90;;;;;;4956082;28;20032;-75
2022/01/05 05:17:52;;;;;;;5.28;1.20;;;24.80;99.90;;;;;;4956348;29;20020;-73
2022/01/05 05:20:20;;;;;;;7.70;1.20;;;24.80;99.90;;;;;;4956318;28;20086;-74
2022/01/05 05:22:47;;;;;;;5.65;1.42;;;24.80;99.90;;;;;;4956139;28;20055;-73
2022/01/05 05:25:14;;;;;;;7.43;2.90;;;24.80;99.90;;;;;;4955710;28;20043;-74
2022/01/05 05:27:41;;;;;;;9.35;2.08;;;24.90;99.90;;;;;;4955998;29;20047;-74
2022/01/05 05:30:09;;;;;;;10.07;1.30;;;24.90;99.90;;;;;;4956049;28;20023;-74
2022/01/05 05:32:36;;;;;;;7.75;1.20;;;24.90;99.90;;;;;;4954612;28;20403;-74
2022/01/05 05:35:05;;;;;;;7.80;1.98;;;24.90;99.90;;;;;;4955799;28;20612;-76
2022/01/05 05:37:32;;;;;;;5.45;1.45;;;24.90;99.90;;;;;;4955731;28;20373;-74
2022/01/05 05:39:59;;;;;;;8.75;1.88;;;24.90;99.90;;;;;;4955794;28;20058;-74
2022/01/05 05:42:27;;;;;;;9.82;2.45;;;25.00;99.90;;;;;;4955295;28;20019;-74
2022/01/05 05:44:54;;;;;;;8.77;1.58;;;25.00;99.90;;;;;;4954459;28;20034;-74
2022/01/05 05:47:22;;;;;;;6.45;1.40;;;25.10;99.90;;;;;;4955696;28;20074;-76
2022/01/05 05:49:49;;;;;;;7.90;1.67;;;25.10;99.90;;;;;;4955874;28;20027;-75
2022/01/05 05:52:17;;;;;;;7.72;1.60;;;25.20;99.90;;;;;;4955420;28;20023;-75
2022/01/05 05:54:44;;;;;;;7.68;1.63;;;25.20;99.90;;;;;;4955414;28;20123;-75
2022/01/05 05:57:11;;;;;;;8.68;1.77;;;25.10;99.90;;;;;;4955579;28;20493;-75
2022/01/05 05:59:39;;;;;;;7.47;1.92;;;25.10;99.90;;;;;;4955597;29;20023;-75
2022/01/05 06:02:06;;;;;;;11.10;2.00;;;25.10;99.90;;;;;;4955476;28;20051;-74
2022/01/05 06:04:33;;;;;;;5.88;1.33;;;25.10;99.90;;;;;;4955474;29;20019;-73
2022/01/05 06:07:00;;;;;;;8.00;2.25;;;25.10;99.90;;;;;;4955384;28;20032;-75
2022/01/05 06:09:28;;;;;;;4.78;1.25;;;25.20;99.90;;;;;;4954121;28;20019;-73
2022/01/05 06:11:55;;;;;;;4.22;1.10;;;25.20;99.90;;;;;;4955361;28;20039;-74
2022/01/05 06:14:23;;;;;;;7.28;1.15;;;25.30;99.90;;;;;;4955031;28;20027;-73
2022/01/05 06:16:50;;;;;;;5.15;1.10;;;25.40;99.90;;;;;;4953682;28;20030;-74
2022/01/05 06:19:17;;;;;;;6.88;2.08;;;25.40;99.90;;;;;;4954880;28;20019;-73
2022/01/05 06:21:45;;;;;;;12.18;2.22;;;25.60;99.90;;;;;;4955003;28;20110;-74
2022/01/05 06:24:13;;;;;;;6.93;1.38;;;25.70;99.90;;;;;;4953323;28;20600;-75
2022/01/05 06:26:40;;;;;;;10.38;1.95;;;25.80;99.90;;;;;;4954785;29;20035;-75
2022/01/05 06:29:08;;;;;;;9.20;2.30;;;25.90;99.90;;;;;;4954564;28;20074;-74
2022/01/05 06:32:14;;;;;;;10.40;1.98;;;25.90;99.90;;;;;;5089549;27;20479;-75
2022/01/05 06:34:42;;;;;;;10.85;2.00;;;26.30;99.90;;;;;;5089898;28;20489;-74
2022/01/05 06:37:15;;;;;;;12.70;2.75;;;26.50;99.90;;;;;;5089731;28;20476;-75
2022/01/05 06:39:42;;;;;;;19.88;4.55;;;26.80;99.90;;;;;;5090102;28;20038;-75
2022/01/05 06:42:10;;;;;;;22.15;3.42;;;27.10;99.90;;;;;;5089665;28;20031;-75
2022/01/05 06:44:37;;;;;;;11.05;3.90;;;27.40;99.90;;;;;;5089484;28;20095;-73
2022/01/05 06:47:05;;;;;;;17.65;3.58;;;27.50;99.90;;;;;;5089640;28;20102;-74
2022/01/05 06:49:32;;;;;;;12.32;3.08;;;27.60;99.90;;;;;;5089483;28;20030;-74
2022/01/05 06:51:59;;;;;;;16.77;3.85;;;27.70;99.90;;;;;;5088967;28;20036;-76
2022/01/05 06:54:27;;;;;;;11.25;2.60;;;27.70;99.90;;;;;;5089138;28;20366;-75
2022/01/05 06:56:54;;;;;;;23.00;3.95;;;27.40;99.90;;;;;;5089357;28;20027;-76
2022/01/05 06:59:21;;;;;;;17.85;4.05;;;27.20;99.90;;;;;;5089052;28;20500;-77
2022/01/05 07:01:49;;;;;;;20.92;3.78;;;26.80;99.90;;;;;;5088913;28;20487;-75
2022/01/05 07:04:16;;;;;;;23.10;4.40;;;26.60;99.90;;;;;;5089064;28;20020;-75
2022/01/05 07:06:43;;;;;;;23.55;4.13;;;26.30;99.90;;;;;;5088097;28;20028;-75
2022/01/05 07:09:10;;;;;;;17.95;4.10;;;26.20;99.90;;;;;;5088850;28;20096;-74
2022/01/05 07:11:39;;;;;;;19.08;3.63;;;26.20;99.90;;;;;;5088892;28;20073;-75
2022/01/05 07:14:06;;;;;;;20.38;4.88;;;26.10;99.90;;;;;;5088596;28;20017;-74
2022/01/05 07:16:33;;;;;;;27.45;4.90;;;26.30;99.90;;;;;;5088840;28;20028;-75
2022/01/05 07:19:01;;;;;;;24.85;4.60;;;26.30;99.90;;;;;;5088848;28;20027;-74
2022/01/05 07:21:29;;;;;;;20.88;4.25;;;26.30;99.90;;;;;;5088639;28;20024;-75
2022/01/05 07:23:56;;;;;;;18.73;4.30;;;26.30;99.90;;;;;;5088695;28;20373;-76
2022/01/05 07:26:24;;;;;;;23.55;5.65;;;26.30;99.90;;;;;;5088355;28;20024;-75
2022/01/05 07:28:51;;;;;;;21.35;4.20;;;26.50;99.90;;;;;;5088324;28;20115;-74
2022/01/05 07:31:18;;;;;;;21.55;5.20;;;26.60;99.90;;;;;;5087220;28;20055;-76
2022/01/05 07:33:46;;;;;;;24.63;7.80;;;26.60;99.90;;;;;;5088763;28;20536;-75
2022/01/05 07:36:13;;;;;;;23.90;5.90;;;26.50;99.90;;;;;;5088632;28;20036;-75
2022/01/05 07:38:42;;;;;;;29.08;5.00;;;26.30;99.90;;;;;;5088453;28;20025;-75
2022/01/05 07:41:10;;;;;;;22.20;4.93;;;26.30;99.90;;;;;;5088175;28;20469;-75
2022/01/05 07:43:37;;;;;;;24.48;5.15;;;26.20;99.90;;;;;;5072875;28;20063;-75
2022/01/05 07:46:04;;;;;;;30.25;6.30;;;26.20;99.90;;;;;;5074722;28;20116;-74
2022/01/05 07:48:32;;;;;;;34.92;5.47;;;26.20;99.90;;;;;;5074804;28;20078;-74
2022/01/05 07:50:59;;;;;;;31.42;5.82;;;26.00;99.90;;;;;;5074488;28;20032;-74
2022/01/05 07:53:26;;;;;;;27.83;6.43;;;25.90;99.90;;;;;;5073168;28;20532;-74
2022/01/05 07:55:54;;;;;;;31.98;7.47;;;25.80;99.90;;;;;;5074543;28;20028;-75
2022/01/05 07:58:23;;;;;;;31.10;6.07;;;25.80;99.90;;;;;;5073473;28;20024;-75
2022/01/05 08:00:51;;;;;;;23.17;5.78;;;25.80;99.90;;;;;;5074519;28;20025;-74
2022/01/05 08:03:18;;;;;;;32.15;6.80;;;25.70;99.90;;;;;;5074659;28;20028;-75
2022/01/05 08:05:45;;;;;;;24.35;5.75;;;25.60;99.90;;;;;;5074775;28;20104;-74
2022/01/05 08:08:13;;;;;;;32.90;6.47;;;25.60;99.90;;;;;;5074057;28;20020;-75
2022/01/05 08:10:40;;;;;;;28.30;5.70;;;25.50;99.90;;;;;;5074163;28;20029;-75
2022/01/05 08:13:08;;;;;;;29.65;5.00;;;25.40;99.90;;;;;;5074213;28;20024;-76
2022/01/05 08:15:35;;;;;;;25.88;6.10;;;25.30;99.90;;;;;;5072834;28;20089;-75
2022/01/05 08:18:02;;;;;;;30.88;6.05;;;25.20;99.90;;;;;;5074268;28;20017;-75
2022/01/05 08:20:30;;;;;;;30.23;6.50;;;25.20;99.90;;;;;;5072942;28;20025;-75
2022/01/05 08:22:57;;;;;;;32.08;5.93;;;25.10;99.90;;;;;;5073186;28;20112;-74
2022/01/05 08:25:25;;;;;;;30.85;7.05;;;25.10;99.90;;;;;;5072898;28;20028;-73
2022/01/05 08:27:52;;;;;;;27.75;6.20;;;25.20;99.90;;;;;;5072928;28;20025;-73
2022/01/05 08:30:24;;;;;;;25.80;6.07;;;25.10;99.90;;;;;;5072356;28;20129;-74
2022/01/05 08:32:53;;;;;;;32.42;6.93;;;25.10;99.90;;;;;;5073910;28;20025;-75
2022/01/05 08:35:24;;;;;;;29.40;6.95;;;25.00;99.90;;;;;;5072562;28;20025;-73
2022/01/05 08:37:53;;;;;;;31.48;6.60;;;25.00;99.90;;;;;;5073642;28;20024;-75
2022/01/05 08:40:22;;;;;;;28.08;5.38;;;24.90;99.90;;;;;;5073811;28;20024;-77
2022/01/05 08:42:50;;;;;;;27.35;6.00;;;24.90;99.90;;;;;;5073694;28;20027;-73
2022/01/05 08:45:19;;;;;;;32.20;6.55;;;24.90;99.90;;;;;;5073702;28;20042;-75
2022/01/05 08:47:50;;;;;;;35.13;7.47;;;24.80;99.90;;;;;;5072942;28;20025;-74
2022/01/05 08:50:20;;;;;;;26.40;6.63;;;24.80;99.90;;;;;;5072788;28;20120;-74
2022/01/05 08:52:48;;;;;;;34.15;7.07;;;24.80;99.90;;;;;;5072347;28;20112;-74
2022/01/05 08:55:18;;;;;;;32.65;5.43;;;24.80;99.90;;;;;;5072652;28;20024;-73
2022/01/05 08:57:47;;;;;;;24.20;6.03;;;24.80;99.90;;;;;;5072567;28;20031;-73
2022/01/05 09:00:15;;;;;;;26.92;6.15;;;24.80;99.90;;;;;;5073843;28;20090;-73
2022/01/05 09:02:43;;;;;;;31.80;7.18;;;24.70;99.90;;;;;;5073486;28;20371;-73
2022/01/05 09:05:12;;;;;;;34.28;8.25;;;24.60;99.90;;;;;;5073248;28;20381;-74
2022/01/05 09:07:40;;;;;;;36.22;6.38;;;24.60;99.90;;;;;;5073151;28;20020;-74
2022/01/05 09:10:08;;;;;;;32.97;6.97;;;24.50;99.90;;;;;;5073193;28;20036;-74
2022/01/05 09:12:35;;;;;;;34.00;6.45;;;24.50;99.90;;;;;;5073194;28;20503;-76
2022/01/05 09:15:04;;;;;;;30.05;6.22;;;24.40;99.90;;;;;;5073294;28;20527;-74
2022/01/05 09:17:32;;;;;;;39.55;8.15;;;24.30;99.90;;;;;;5073142;28;20396;-75
2022/01/05 09:19:59;;;;;;;35.03;6.18;;;24.40;99.90;;;;;;5071768;28;20032;-75
2022/01/05 09:22:26;;;;;;;41.97;7.57;;;24.30;99.90;;;;;;5072976;28;20021;-74
2022/01/05 09:24:54;;;;;;;30.80;6.38;;;24.30;99.90;;;;;;5073038;28;20381;-76
2022/01/05 09:27:22;;;;;;;28.63;5.82;;;24.30;99.90;;;;;;5071732;28;20032;-74
2022/01/05 09:29:49;;;;;;;27.73;5.90;;;24.30;99.90;;;;;;5072515;28;20469;-74
2022/01/05 09:32:17;;;;;;;35.35;7.15;;;24.30;99.90;;;;;;5072938;28;20112;-77
2022/01/05 09:34:45;;;;;;;28.35;7.32;;;24.30;99.90;;;;;;5072650;28;20021;-74
2022/01/05 09:37:33;;;;;;;34.17;7.78;;;24.30;99.90;;;;;;5072879;28;20497;-74
2022/01/05 09:42:45;;;;;;;36.97;8.10;;;24.30;99.90;;;;;;5072760;28;20032;-74
2022/01/05 09:45:15;;;;;;;40.25;6.65;;;24.40;99.90;;;;;;5072807;28;20016;-74
2022/01/05 09:48:13;;;;;;;38.70;7.97;;;24.40;99.90;;;;;;5072564;28;20022;-75
2022/01/05 09:50:50;;;;;;;40.45;6.05;;;24.40;99.90;;;;;;5072570;28;20028;-72
2022/01/05 09:53:18;;;;;;;33.17;6.68;;;24.40;99.90;;;;;;5072449;28;20411;-74
2022/01/05 09:55:51;;;;;;;30.30;6.90;;;24.40;99.90;;;;;;5072566;28;20025;-74
2022/01/05 09:58:22;;;;;;;37.67;6.97;;;24.30;99.90;;;;;;5072516;28;20017;-74
2022/01/05 10:00:51;;;;;;;29.63;5.80;;;24.30;99.90;;;;;;5072419;28;20029;-76
2022/01/05 10:03:19;;;;;;;41.08;7.18;;;24.30;99.90;;;;;;5072554;28;20029;-74
2022/01/05 10:05:46;;;;;;;33.47;5.97;;;24.30;99.90;;;;;;5071891;28;20048;-73
2022/01/05 10:08:14;;;;;;;32.88;6.95;;;24.30;99.90;;;;;;5072240;28;20020;-74
2022/01/05 10:10:44;;;;;;;28.15;5.60;;;24.30;99.90;;;;;;5072242;28;20037;-73
2022/01/05 10:13:11;;;;;;;37.63;7.13;;;24.30;99.90;;;;;;5072394;28;20012;-73
2022/01/05 10:15:39;;;;;;;27.20;6.05;;;24.30;99.90;;;;;;5071861;28;20469;-74
2022/01/05 10:18:17;;;;;;;33.03;6.05;;;24.30;99.90;;;;;;5071824;28;20404;-75
2022/01/05 10:21:03;;;;;;;32.35;6.65;;;24.40;99.90;;;;;;5071484;28;20498;-76
2022/01/05 10:23:51;;;;;;;30.33;5.75;;;24.40;99.90;;;;;;5070577;28;20543;-74
2022/01/05 10:26:24;;;;;;;32.63;6.45;;;24.40;99.90;;;;;;5072042;28;20028;-73
2022/01/05 10:29:15;;;;;;;35.63;7.32;;;24.30;99.90;;;;;;5071833;28;20485;-73
2022/01/05 10:31:44;;;;;;;30.33;6.07;;;24.30;99.90;;;;;;5063850;28;20131;-76
2022/01/05 10:34:14;;;;;;;38.42;7.95;;;24.30;99.90;;;;;;5071892;28;20481;-73
2022/01/05 10:36:48;;;;;;;36.22;6.53;;;24.30;99.90;;;;;;5071952;28;20032;-73
2022/01/05 10:39:20;;;;;;;30.58;5.53;;;24.30;99.90;;;;;;5071808;28;20025;-73
2022/01/05 10:41:48;;;;;;;33.28;6.32;;;24.30;99.90;;;;;;5071966;28;20543;-74
2022/01/05 10:44:21;;;;;;;42.10;7.28;;;24.30;99.90;;;;;;5071868;28;20342;-75
2022/01/05 10:46:55;;;;;;;28.48;5.30;;;24.30;99.90;;;;;;5072094;28;20481;-75
2022/01/05 10:49:37;;;;;;;34.40;7.45;;;24.30;99.90;;;;;;5071978;28;20089;-74
2022/01/05 10:52:27;;;;;;;33.25;7.13;;;24.30;99.90;;;;;;5072017;28;20477;-74
2022/01/05 10:55:08;;;;;;;32.85;5.82;;;24.20;99.90;;;;;;5071996;28;20029;-74
2022/01/05 10:57:35;;;;;;;30.20;5.60;;;24.20;99.90;;;;;;5071835;28;20063;-74
2022/01/05 11:00:04;;;;;;;37.10;6.00;;;24.20;99.90;;;;;;5071789;28;20019;-73
2022/01/05 11:02:34;;;;;;;39.40;6.50;;;24.20;99.90;;;;;;5071756;28;20025;-73
2022/01/05 11:05:11;;;;;;;30.73;7.38;;;24.30;99.90;;;;;;5071945;28;20020;-73
2022/01/05 11:07:41;;;;;;;26.83;5.20;;;24.30;99.90;;;;;;5071868;28;20025;-74
2022/01/05 11:10:20;;;;;;;35.45;5.20;;;24.20;99.90;;;;;;5071773;28;20100;-74
2022/01/05 11:12:52;;;;;;;32.65;6.72;;;24.30;99.90;;;;;;5071715;28;20033;-73
2022/01/05 11:15:33;;;;;;;40.17;5.38;;;24.30;99.90;;;;;;5071801;28;20017;-74
2022/01/05 11:18:12;;;;;;;29.25;5.30;;;24.30;99.90;;;;;;5073486;28;20029;-72
2022/01/05 11:20:55;;;;;;;32.25;5.95;;;24.30;99.90;;;;;;5074782;28;20495;-73
2022/01/05 11:23:24;;;;;;;31.48;6.35;;;24.30;99.90;;;;;;5075390;28;20108;-74
2022/01/05 11:25:53;;;;;;;30.63;5.50;;;24.30;99.90;;;;;;5075161;28;20039;-75
2022/01/05 11:28:23;;;;;;;25.98;5.00;;;24.30;99.90;;;;;;5075343;28;20028;-74
2022/01/05 11:30:52;;;;;;;30.67;6.43;;;24.30;99.90;;;;;;5074965;28;20045;-74
2022/01/05 11:33:20;;;;;;;36.78;6.60;;;24.30;99.90;;;;;;5075208;28;20029;-74
2022/01/05 11:35:49;;;;;;;36.13;6.07;;;24.30;99.90;;;;;;5075460;28;20012;-73
2022/01/05 11:38:17;;;;;;;34.92;5.97;;;24.30;99.90;;;;;;5075129;28;20077;-73
2022/01/05 11:40:55;;;;;;;32.33;6.70;;;24.30;99.90;;;;;;5075170;28;20025;-73
2022/01/05 11:43:35;;;;;;;31.38;6.88;;;24.40;99.90;;;;;;5074860;28;20025;-73
2022/01/05 11:46:17;;;;;;;33.40;6.70;;;24.30;99.90;;;;;;5074620;28;20066;-73
2022/01/05 11:49:01;;;;;;;28.25;5.93;;;24.40;99.90;;;;;;5073347;28;20031;-72
2022/01/05 11:51:52;;;;;;;37.63;7.63;;;24.20;99.90;;;;;;5074724;28;20531;-71
2022/01/05 11:54:31;;;;;;;22.80;4.30;;;24.10;99.90;;;;;;5073194;28;20017;-71
2022/01/05 11:57:18;;;;;;;18.20;2.90;;;23.90;99.90;;;;;;5074736;28;20024;-71
2022/01/05 11:59:45;;;;;;;17.33;2.90;;;23.60;99.90;;;;;;5074952;28;20025;-71
2022/01/05 12:02:18;;;;;;;8.95;2.22;;;23.40;99.90;;;;;;5074872;28;20085;-70
2022/01/05 12:04:57;;;;;;;13.85;4.03;;;23.10;99.90;;;;;;5074611;28;20025;-72
2022/01/05 12:07:43;;;;;;;15.98;2.80;;;23.00;99.90;;;;;;5073175;28;20067;-71
2022/01/05 12:10:23;;;;;;;13.30;2.63;;;22.80;99.90;;;;;;5074390;28;20082;-71
2022/01/05 12:13:06;;;;;;;14.77;2.53;;;22.70;99.90;;;;;;5074504;28;20021;-71
2022/01/05 12:15:56;;;;;;;8.50;1.73;;;22.60;99.90;;;;;;5073057;28;20060;-71
2022/01/05 12:18:30;;;;;;;10.55;1.83;;;22.60;99.90;;;;;;5074483;28;20115;-72
2022/01/05 12:20:58;;;;;;;14.02;1.75;;;22.60;99.90;;;;;;5074233;28;20473;-72
2022/01/05 12:23:28;;;;;;;12.77;2.63;;;22.60;99.90;;;;;;5074279;28;20098;-72
2022/01/05 12:26:05;;;;;;;12.98;1.98;;;22.70;99.90;;;;;;5074484;28;20025;-72
2022/01/05 12:28:33;;;;;;;13.25;2.80;;;22.70;99.90;;;;;;5073176;28;20056;-73
2022/01/05 12:31:01;;;;;;;20.50;3.72;;;22.60;99.90;;;;;;5074081;28;20178;-71
2022/01/05 12:33:55;;;;;;;20.90;4.30;;;22.60;99.90;;;;;;5074189;28;20024;-72
2022/01/05 12:36:36;;;;;;;19.75;4.15;;;22.60;99.90;;;;;;5074329;28;20029;-72
2022/01/05 12:39:05;;;;;;;30.35;5.75;;;22.60;99.90;;;;;;5074170;28;20016;-72
2022/01/05 12:41:37;;;;;;;31.67;5.45;;;22.70;99.90;;;;;;5074147;28;20056;-71
2022/01/05 12:44:30;;;;;;;40.70;6.13;;;22.70;99.90;;;;;;5074218;28;20021;-72
2022/01/05 12:46:57;;;;;;;34.17;6.20;;;22.70;99.90;;;;;;5073797;28;20050;-73
2022/01/05 12:49:32;;;;;;;34.88;6.18;;;22.70;99.90;;;;;;5073894;28;20025;-72
2022/01/05 12:52:16;;;;;;;32.20;7.35;;;22.80;99.90;;;;;;5073502;28;20032;-72
2022/01/05 12:54:48;;;;;;;31.80;6.10;;;22.90;99.90;;;;;;5073791;28;20013;-72
2022/01/05 12:57:18;;;;;;;31.15;5.22;;;22.90;99.90;;;;;;5073755;28;20021;-71